Mandan, North Dakota
Current Conditions -  °F | °C
As of 2:35 AM on Tuesday 21 Oct 2014 (Local Time) from KY19 Reporting Station
Clear Clear  
Wind Chill: 57°   Ceiling: Unl
Heat Index: 57°   Visibility: 10mi
Dew Point: 34°   Wind: 29mph
Humidity: 41%   Direction: 140°SE
Pressure: 29.87"   Gusts: 38mph
Location:  46.83°N, 100.88°W
Report Text: KY19 210835Z AUTO 14025G33KT 10SM CLR 14/01 A2987 RMK AO2
Loading
Personal Weather Stations






























Interactive Weather Map
Tropical Storm Tracking
New forecast layout! Learn more

10-Day Weather Forecast

Advertisements
Track Severe Weather on mobile